createdAt,value
2023-03-03T00:02:18.046Z,59.56
2023-03-03T00:04:46.441Z,58.95
2023-03-03T00:07:21.859Z,58.43
2023-03-03T00:09:50.950Z,58.40
2023-03-03T00:12:26.861Z,59.01
2023-03-03T00:14:56.285Z,58.42
2023-03-03T00:17:30.754Z,58.72
2023-03-03T00:19:59.817Z,59.47
2023-03-03T00:22:46.281Z,60.57
2023-03-03T00:25:34.922Z,60.73
2023-03-03T00:28:31.443Z,60.34
2023-03-03T00:31:01.631Z,60.05
2023-03-03T00:33:43.796Z,59.46
2023-03-03T00:36:32.012Z,59.49
2023-03-03T00:39:39.466Z,61.30
2023-03-03T00:42:15.605Z,63.35
2023-03-03T00:44:48.810Z,64.52
2023-03-03T00:47:38.577Z,64.06
2023-03-03T00:50:07.491Z,62.70
2023-03-03T00:52:38.469Z,62.08
2023-03-03T00:55:08.077Z,61.80
2023-03-03T00:57:36.449Z,61.68
2023-03-03T01:00:06.208Z,61.16
2023-03-03T01:02:34.650Z,60.64
2023-03-03T01:05:03.077Z,61.31
2023-03-03T01:07:31.180Z,61.55
2023-03-03T01:09:59.640Z,61.79
2023-03-03T01:12:30.912Z,61.47
2023-03-03T01:14:59.785Z,60.85
2023-03-03T01:17:29.732Z,60.72
2023-03-03T01:19:58.469Z,60.08
2023-03-03T01:22:34.180Z,60.27
2023-03-03T01:25:03.898Z,60.14
2023-03-03T01:27:32.358Z,59.89
2023-03-03T01:30:01.128Z,59.58
2023-03-03T01:32:30.424Z,59.23
2023-03-03T01:34:58.812Z,59.08
2023-03-03T01:37:28.282Z,59.06
2023-03-03T01:39:57.379Z,59.11
2023-03-03T01:42:29.507Z,59.53
2023-03-03T01:45:43.912Z,59.20
2023-03-03T01:48:23.417Z,59.13
2023-03-03T01:51:11.055Z,59.50
2023-03-03T01:53:45.323Z,59.52
2023-03-03T01:56:14.370Z,59.40
2023-03-03T01:58:47.267Z,59.26
2023-03-03T02:01:21.197Z,59.47
2023-03-03T02:03:49.605Z,59.46
2023-03-03T02:06:22.751Z,59.72
2023-03-03T02:09:14.865Z,59.61
2023-03-03T02:11:46.014Z,59.99
2023-03-03T02:14:14.707Z,59.52
2023-03-03T02:16:43.431Z,60.14
2023-03-03T02:19:28.990Z,59.66
2023-03-03T02:21:58.519Z,59.79
2023-03-03T02:24:32.318Z,59.39
2023-03-03T02:27:00.790Z,59.97
2023-03-03T02:29:29.307Z,60.45
2023-03-03T02:31:57.556Z,60.67
2023-03-03T02:34:27.093Z,60.99
2023-03-03T02:36:56.003Z,60.58
2023-03-03T02:39:26.974Z,60.60
2023-03-03T02:41:56.235Z,60.50
2023-03-03T02:44:30.693Z,60.66
2023-03-03T02:46:59.713Z,60.67
2023-03-03T02:49:31.147Z,60.48
2023-03-03T02:52:01.036Z,60.09
2023-03-03T02:54:31.263Z,61.19
2023-03-03T02:57:03.821Z,61.56
2023-03-03T02:59:32.085Z,61.50
2023-03-03T03:02:00.835Z,60.98
2023-03-03T03:04:29.426Z,61.29
2023-03-03T03:06:57.753Z,61.21
2023-03-03T03:09:28.483Z,60.75
2023-03-03T03:11:57.122Z,60.30
2023-03-03T03:14:25.368Z,60.38
2023-03-03T03:16:55.406Z,60.69
2023-03-03T03:19:23.943Z,62.10
2023-03-03T03:21:52.820Z,62.00
2023-03-03T03:24:21.209Z,61.33
2023-03-03T03:26:49.552Z,61.98
2023-03-03T03:29:17.729Z,61.24
2023-03-03T03:31:46.142Z,62.07
2023-03-03T03:34:14.478Z,61.67
2023-03-03T03:36:43.421Z,61.33
2023-03-03T03:39:11.938Z,61.86
2023-03-03T03:41:43.253Z,61.14
2023-03-03T03:44:11.777Z,61.50
2023-03-03T03:46:40.256Z,61.25
2023-03-03T03:49:08.573Z,62.19
2023-03-03T03:51:38.482Z,61.87
2023-03-03T03:54:06.588Z,61.88
2023-03-03T03:56:35.117Z,61.79
2023-03-03T03:59:03.802Z,62.50
2023-03-03T04:01:31.901Z,62.37
2023-03-03T04:04:03.361Z,62.15
2023-03-03T04:06:32.468Z,61.87
2023-03-03T04:09:00.756Z,61.25
2023-03-03T04:11:29.050Z,61.26
2023-03-03T04:13:57.618Z,61.07
2023-03-03T04:16:26.429Z,61.08
2023-03-03T04:18:56.313Z,61.31
2023-03-03T04:21:25.519Z,60.73
2023-03-03T04:27:57.090Z,61.38
2023-03-03T04:34:27.697Z,61.74
2023-03-03T04:36:56.986Z,61.17
2023-03-03T04:39:25.475Z,60.97
2023-03-03T04:41:53.564Z,60.90
2023-03-03T04:44:22.642Z,60.79
2023-03-03T04:46:51.058Z,60.85
2023-03-03T04:49:19.690Z,60.96
2023-03-03T04:51:47.970Z,60.94
2023-03-03T04:54:16.157Z,60.77
2023-03-03T04:56:44.677Z,60.69
2023-03-03T04:59:12.977Z,61.18
2023-03-03T05:01:41.315Z,61.05
2023-03-03T05:04:10.088Z,61.12
2023-03-03T05:06:38.483Z,61.26
2023-03-03T05:09:06.924Z,61.53
2023-03-03T05:11:36.949Z,61.51
2023-03-03T05:14:05.183Z,61.73
2023-03-03T05:16:34.147Z,61.84
2023-03-03T05:19:02.208Z,61.58
2023-03-03T05:21:30.563Z,61.64
2023-03-03T05:23:58.753Z,61.59
2023-03-03T05:26:27.097Z,61.83
2023-03-03T05:28:55.248Z,61.93
2023-03-03T05:31:24.184Z,62.06
2023-03-03T05:33:52.220Z,62.16
2023-03-03T05:36:20.747Z,62.62
2023-03-03T05:38:48.979Z,62.74
2023-03-03T05:41:17.652Z,62.90
2023-03-03T05:43:46.286Z,62.69
2023-03-03T05:46:14.746Z,62.94
2023-03-03T05:48:43.846Z,62.95
2023-03-03T05:51:12.320Z,63.08
2023-03-03T05:53:40.691Z,63.16
2023-03-03T05:56:09.317Z,63.41
2023-03-03T05:58:37.661Z,63.42
2023-03-03T06:01:06.199Z,63.48
2023-03-03T06:03:34.645Z,63.75
2023-03-03T06:06:03.235Z,63.92
2023-03-03T06:08:33.040Z,63.77
2023-03-03T06:11:01.592Z,63.73
2023-03-03T06:13:32.615Z,63.46
2023-03-03T06:16:00.903Z,63.54
2023-03-03T06:18:29.368Z,63.31
2023-03-03T06:20:57.951Z,63.33
2023-03-03T06:23:26.203Z,63.45
2023-03-03T06:25:54.816Z,63.14
2023-03-03T06:28:23.408Z,62.88
2023-03-03T06:30:55.682Z,62.97
2023-03-03T06:33:24.592Z,62.89
2023-03-03T06:35:54.935Z,62.79
2023-03-03T06:38:23.160Z,62.76
2023-03-03T06:40:51.727Z,62.96
2023-03-03T06:43:23.354Z,62.91
2023-03-03T06:45:52.055Z,63.14
2023-03-03T06:48:20.208Z,63.43
2023-03-03T06:50:48.665Z,63.48
2023-03-03T06:53:18.669Z,63.31
2023-03-03T06:55:47.167Z,63.09
2023-03-03T06:58:17.922Z,63.27
2023-03-03T07:00:58.984Z,63.51
2023-03-03T07:03:35.182Z,63.85
2023-03-03T07:06:15.075Z,63.99
2023-03-03T07:08:43.558Z,64.10
2023-03-03T07:11:16.203Z,64.05
2023-03-03T07:13:49.324Z,63.93
2023-03-03T07:16:25.134Z,63.77
2023-03-03T07:19:01.327Z,63.64
2023-03-03T07:21:38.214Z,63.45
2023-03-03T07:24:29.324Z,63.42
2023-03-03T07:27:06.710Z,63.55
2023-03-03T07:29:35.960Z,63.31
2023-03-03T07:32:13.939Z,63.14
2023-03-03T07:34:48.257Z,63.29
2023-03-03T07:37:39.020Z,63.21
2023-03-03T07:40:34.053Z,63.50
2023-03-03T07:43:17.660Z,63.66
2023-03-03T07:45:48.103Z,63.57
2023-03-03T07:48:24.756Z,63.48
2023-03-03T07:50:53.115Z,63.76
2023-03-03T07:53:35.139Z,63.78
2023-03-03T07:56:12.528Z,64.35
2023-03-03T07:58:42.299Z,64.27
2023-03-03T08:01:40.036Z,64.18
2023-03-03T08:04:30.432Z,64.25
2023-03-03T08:07:02.000Z,64.29
2023-03-03T08:09:45.058Z,64.14
2023-03-03T08:12:43.041Z,64.25
2023-03-03T08:15:20.562Z,64.47
2023-03-03T08:17:50.172Z,64.26
2023-03-03T08:20:44.994Z,64.11
2023-03-03T08:23:15.433Z,63.93
2023-03-03T08:25:44.919Z,64.04
2023-03-03T08:28:14.478Z,64.02
2023-03-03T08:30:44.062Z,63.88
2023-03-03T08:33:15.932Z,63.88
2023-03-03T08:35:45.185Z,63.47
2023-03-03T08:38:16.193Z,63.36
2023-03-03T08:40:45.674Z,63.08
2023-03-03T08:43:17.416Z,62.88
2023-03-03T08:45:47.315Z,62.87
2023-03-03T08:48:16.652Z,62.64
2023-03-03T08:50:45.973Z,62.72
2023-03-03T08:53:18.603Z,63.09
2023-03-03T08:55:50.589Z,63.20
2023-03-03T08:58:21.233Z,63.02
2023-03-03T09:00:52.115Z,62.82
2023-03-03T09:03:20.544Z,62.91
2023-03-03T09:05:48.751Z,62.49
2023-03-03T09:08:18.053Z,62.22
2023-03-03T09:10:46.545Z,61.67
2023-03-03T09:13:19.895Z,61.63
2023-03-03T09:15:49.395Z,61.51
2023-03-03T09:18:21.952Z,61.20
2023-03-03T09:20:52.255Z,60.84
2023-03-03T09:23:48.632Z,60.93
2023-03-03T09:26:32.467Z,60.46
2023-03-03T09:29:09.834Z,60.46
2023-03-03T09:31:46.801Z,59.81
2023-03-03T09:34:37.069Z,60.04
2023-03-03T09:37:26.950Z,60.19
2023-03-03T09:40:00.807Z,60.47
2023-03-03T09:42:43.180Z,60.41
2023-03-03T09:45:15.585Z,60.10
2023-03-03T09:48:09.527Z,59.75
2023-03-03T09:50:55.311Z,60.36
2023-03-03T09:54:01.399Z,59.84
2023-03-03T09:56:38.275Z,59.66
2023-03-03T09:59:30.952Z,59.15
2023-03-03T10:02:30.196Z,59.71
2023-03-03T10:05:14.412Z,59.70
2023-03-03T10:07:57.590Z,59.57
2023-03-03T10:10:46.189Z,59.79
2023-03-03T10:13:36.102Z,59.86
2023-03-03T10:16:22.358Z,60.05
2023-03-03T10:19:03.923Z,59.85
2023-03-03T10:21:37.282Z,59.55
2023-03-03T10:24:32.146Z,59.39
2023-03-03T10:27:15.489Z,59.62
2023-03-03T10:30:08.567Z,59.93
2023-03-03T10:33:13.434Z,61.31
2023-03-03T10:36:00.926Z,60.60
2023-03-03T10:38:58.662Z,60.58
2023-03-03T10:41:52.249Z,60.85
2023-03-03T10:44:57.992Z,60.77
2023-03-03T10:47:45.961Z,60.69
2023-03-03T10:51:01.548Z,60.35
2023-03-03T10:54:11.561Z,60.75
2023-03-03T10:56:52.192Z,61.29
2023-03-03T10:59:37.315Z,61.07
2023-03-03T11:02:33.180Z,60.99
2023-03-03T11:05:30.233Z,61.80
2023-03-03T11:08:24.642Z,61.32
2023-03-03T11:11:14.840Z,61.39
2023-03-03T11:14:13.567Z,61.94
2023-03-03T11:17:01.519Z,61.71
2023-03-03T11:20:11.096Z,61.36
2023-03-03T11:23:00.325Z,60.99
2023-03-03T11:25:44.225Z,60.89
2023-03-03T11:28:15.605Z,60.90
2023-03-03T11:30:46.725Z,60.56
2023-03-03T11:33:46.427Z,60.07
2023-03-03T11:36:34.905Z,60.63
2023-03-03T11:39:09.416Z,61.25
2023-03-03T11:41:53.572Z,60.98
2023-03-03T11:44:44.406Z,61.07
2023-03-03T11:47:26.507Z,61.24
2023-03-03T11:50:12.247Z,60.95
2023-03-03T11:53:00.343Z,60.91
2023-03-03T11:55:37.839Z,60.98
2023-03-03T11:58:25.340Z,60.58
2023-03-03T12:01:26.360Z,60.52
2023-03-03T12:04:19.476Z,60.82
2023-03-03T12:07:16.815Z,60.92
2023-03-03T12:10:02.256Z,60.54
2023-03-03T12:12:30.555Z,60.68
2023-03-03T12:15:19.770Z,60.56
2023-03-03T12:18:09.265Z,60.45
2023-03-03T12:20:52.461Z,60.80
2023-03-03T12:23:43.629Z,60.69
2023-03-03T12:26:32.402Z,60.46
2023-03-03T12:29:30.533Z,60.57
2023-03-03T12:32:23.210Z,60.36
2023-03-03T12:34:58.795Z,60.47
2023-03-03T12:37:48.639Z,60.46
2023-03-03T12:40:28.000Z,60.29
2023-03-03T12:43:19.763Z,60.34
2023-03-03T12:46:03.608Z,60.66
2023-03-03T12:48:45.375Z,60.63
2023-03-03T12:51:39.593Z,60.06
2023-03-03T12:54:25.885Z,59.63
2023-03-03T12:57:11.610Z,59.72
2023-03-03T13:00:02.812Z,59.55
2023-03-03T13:02:59.504Z,59.48
2023-03-03T13:05:56.660Z,59.34
2023-03-03T13:08:49.449Z,59.62
2023-03-03T13:11:48.830Z,59.48
2023-03-03T13:14:32.367Z,59.35
2023-03-03T13:17:24.832Z,59.66
2023-03-03T13:20:00.657Z,59.22
2023-03-03T13:22:41.618Z,58.98
2023-03-03T13:25:31.122Z,58.77
2023-03-03T13:28:14.353Z,58.25
2023-03-03T13:30:49.981Z,58.58
2023-03-03T13:33:29.054Z,58.28
2023-03-03T13:36:02.789Z,58.29
2023-03-03T13:38:42.347Z,58.47
2023-03-03T13:41:49.979Z,57.97
2023-03-03T13:44:26.273Z,57.54
2023-03-03T13:47:09.259Z,57.08
2023-03-03T13:50:01.628Z,56.66
2023-03-03T13:52:34.335Z,56.30
2023-03-03T13:55:29.694Z,55.73
2023-03-03T13:58:23.106Z,55.40
2023-03-03T14:01:22.286Z,55.23
2023-03-03T14:04:29.316Z,55.58
2023-03-03T14:07:04.334Z,55.38
2023-03-03T14:09:53.578Z,55.27
2023-03-03T14:12:36.514Z,55.67
2023-03-03T14:15:31.077Z,55.68
2023-03-03T14:18:10.152Z,55.78
2023-03-03T14:20:44.354Z,55.62
2023-03-03T14:23:42.826Z,55.66
2023-03-03T14:26:12.499Z,55.57
2023-03-03T14:28:46.602Z,55.65
2023-03-03T14:31:26.789Z,55.76
2023-03-03T14:34:11.774Z,55.69
2023-03-03T14:36:43.446Z,55.62
2023-03-03T14:39:37.929Z,55.43
2023-03-03T14:42:13.163Z,55.85
2023-03-03T14:44:47.490Z,55.56
2023-03-03T14:47:27.400Z,55.53
2023-03-03T14:50:03.277Z,55.55
2023-03-03T14:52:34.518Z,55.42
2023-03-03T14:55:32.316Z,55.73
2023-03-03T14:58:01.745Z,55.82
2023-03-03T15:00:36.239Z,55.36
2023-03-03T15:03:21.589Z,55.23
2023-03-03T15:05:52.136Z,54.69
2023-03-03T15:08:32.147Z,54.36
2023-03-03T15:11:20.419Z,54.69
2023-03-03T15:13:49.402Z,54.59
2023-03-03T15:16:23.023Z,54.17
2023-03-03T15:19:28.724Z,54.71
2023-03-03T15:22:08.555Z,54.82
2023-03-03T15:24:48.059Z,55.10
2023-03-03T15:27:25.650Z,55.41
2023-03-03T15:30:24.745Z,55.33
2023-03-03T15:33:34.816Z,55.44
2023-03-03T15:36:47.985Z,55.68
2023-03-03T15:39:37.583Z,56.05
2023-03-03T15:42:36.126Z,56.50
2023-03-03T15:45:33.981Z,56.72
2023-03-03T15:48:42.843Z,56.68
2023-03-03T15:52:01.177Z,56.59
2023-03-03T15:54:59.208Z,57.52
2023-03-03T15:58:07.792Z,57.30
2023-03-03T16:00:48.170Z,57.61
2023-03-03T16:03:32.120Z,57.90
2023-03-03T16:06:19.923Z,57.64
2023-03-03T16:09:23.817Z,57.74
2023-03-03T16:12:16.896Z,58.08
2023-03-03T16:14:57.768Z,58.45
2023-03-03T16:17:57.641Z,58.59
2023-03-03T16:20:47.214Z,58.18
2023-03-03T16:23:25.146Z,58.09
2023-03-03T16:26:05.559Z,58.26
2023-03-03T16:28:54.326Z,59.53
2023-03-03T16:31:29.810Z,58.80
2023-03-03T16:34:20.612Z,58.85
2023-03-03T16:37:09.199Z,58.39
2023-03-03T16:39:43.124Z,58.97
2023-03-03T16:42:24.022Z,58.96
2023-03-03T16:45:09.212Z,59.53
2023-03-03T16:47:59.427Z,59.31
2023-03-03T16:50:36.914Z,60.13
2023-03-03T16:53:27.954Z,60.17
2023-03-03T16:56:22.228Z,59.97
2023-03-03T16:59:18.090Z,60.12
2023-03-03T17:02:18.246Z,60.58
2023-03-03T17:04:59.544Z,60.49
2023-03-03T17:07:49.654Z,60.08
2023-03-03T17:10:32.998Z,60.32
2023-03-03T17:13:23.363Z,60.97
2023-03-03T17:16:14.425Z,60.44
2023-03-03T17:19:13.613Z,60.20
2023-03-03T17:21:47.730Z,60.46
2023-03-03T17:24:48.035Z,61.09
2023-03-03T17:27:39.547Z,61.35
2023-03-03T17:30:22.391Z,61.52
2023-03-03T17:33:00.480Z,62.01
2023-03-03T17:35:54.970Z,61.44
2023-03-03T17:38:41.792Z,61.93
2023-03-03T17:41:18.319Z,61.99
2023-03-03T17:44:08.419Z,62.10
2023-03-03T17:46:48.041Z,62.39
2023-03-03T17:49:40.704Z,62.56
2023-03-03T17:52:28.850Z,63.50
2023-03-03T17:55:19.044Z,63.57
2023-03-03T17:58:14.535Z,63.64
2023-03-03T18:00:43.705Z,62.87
2023-03-03T18:03:30.032Z,62.78
2023-03-03T18:06:17.211Z,62.55
2023-03-03T18:09:15.259Z,62.82
2023-03-03T18:11:53.161Z,63.18
2023-03-03T18:14:59.496Z,62.49
2023-03-03T18:17:43.426Z,62.55
2023-03-03T18:20:51.027Z,62.36
2023-03-03T18:23:35.845Z,62.79
2023-03-03T18:26:32.778Z,62.27
2023-03-03T18:29:25.216Z,62.25
2023-03-03T18:31:53.680Z,62.96
2023-03-03T18:34:44.367Z,62.40
2023-03-03T18:37:33.061Z,63.06
2023-03-03T18:40:04.310Z,62.47
2023-03-03T18:42:40.578Z,62.59
2023-03-03T18:45:23.060Z,62.94
2023-03-03T18:48:13.968Z,62.68
2023-03-03T18:50:47.983Z,62.73
2023-03-03T18:53:27.368Z,63.30
2023-03-03T18:56:01.149Z,63.30
2023-03-03T18:58:36.182Z,63.92
2023-03-03T19:01:23.254Z,64.92
2023-03-03T19:03:51.682Z,63.75
2023-03-03T19:06:38.511Z,63.21
2023-03-03T19:09:12.707Z,63.22
2023-03-03T19:11:51.666Z,62.97
2023-03-03T19:14:29.888Z,62.75
2023-03-03T19:17:19.360Z,62.55
2023-03-03T19:20:09.461Z,62.49
2023-03-03T19:23:04.757Z,62.27
2023-03-03T19:25:33.174Z,62.83
2023-03-03T19:28:17.830Z,62.64
2023-03-03T19:31:17.820Z,63.08
2023-03-03T19:33:55.744Z,63.60
2023-03-03T19:36:45.497Z,63.71
2023-03-03T19:39:23.096Z,63.68
2023-03-03T19:41:51.346Z,63.25
2023-03-03T19:44:29.823Z,63.01
2023-03-03T19:47:10.916Z,62.83
2023-03-03T19:49:58.436Z,63.16
2023-03-03T19:53:02.005Z,64.08
2023-03-03T19:56:00.463Z,63.46
2023-03-03T19:58:55.898Z,63.34
2023-03-03T20:01:32.073Z,64.15
2023-03-03T20:04:26.872Z,63.30
2023-03-03T20:07:31.833Z,63.48
2023-03-03T20:10:24.924Z,64.45
2023-03-03T20:13:07.104Z,64.49
2023-03-03T20:15:49.516Z,65.05
2023-03-03T20:18:44.580Z,64.36
2023-03-03T20:21:24.124Z,64.58
2023-03-03T20:24:28.549Z,63.89
2023-03-03T20:27:18.789Z,63.93
2023-03-03T20:30:25.489Z,63.77
2023-03-03T20:33:12.540Z,64.28
2023-03-03T20:35:50.438Z,64.12
2023-03-03T20:38:33.720Z,64.10
2023-03-03T20:41:01.872Z,64.85
2023-03-03T20:43:36.259Z,64.72
2023-03-03T20:46:18.199Z,64.99
2023-03-03T20:48:49.013Z,65.14
2023-03-03T20:51:56.012Z,64.16
2023-03-03T20:54:36.928Z,64.22
2023-03-03T20:57:34.224Z,64.14
2023-03-03T21:00:19.231Z,64.76
2023-03-03T21:02:55.910Z,64.85
2023-03-03T21:05:24.368Z,64.87
2023-03-03T21:08:05.745Z,65.14
2023-03-03T21:10:36.690Z,64.09
2023-03-03T21:13:40.403Z,65.08
2023-03-03T21:16:21.125Z,64.59
2023-03-03T21:19:06.756Z,63.95
2023-03-03T21:21:38.385Z,64.42
2023-03-03T21:24:09.069Z,64.01
2023-03-03T21:26:58.415Z,64.36
2023-03-03T21:29:35.420Z,64.90
2023-03-03T21:32:07.696Z,64.56
2023-03-03T21:34:42.422Z,63.83
2023-03-03T21:37:12.656Z,64.11
2023-03-03T21:39:44.236Z,63.91
2023-03-03T21:42:29.383Z,63.77
2023-03-03T21:44:57.651Z,63.56
2023-03-03T21:47:29.722Z,63.14
2023-03-03T21:49:58.167Z,63.24
2023-03-03T21:52:27.717Z,62.97
2023-03-03T21:54:56.717Z,62.61
2023-03-03T21:57:26.023Z,62.90
2023-03-03T21:59:58.038Z,62.54
2023-03-03T22:02:26.793Z,62.61
2023-03-03T22:04:55.013Z,62.54
2023-03-03T22:07:23.844Z,62.87
2023-03-03T22:09:52.176Z,62.39
2023-03-03T22:12:20.407Z,62.59
2023-03-03T22:14:49.629Z,62.76
2023-03-03T22:17:17.793Z,62.18
2023-03-03T22:19:46.242Z,62.58
2023-03-03T22:22:14.725Z,62.80
2023-03-03T22:24:43.397Z,62.70
2023-03-03T22:27:12.426Z,62.79
2023-03-03T22:29:40.640Z,62.92
2023-03-03T22:32:09.306Z,62.48
2023-03-03T22:34:38.154Z,62.35
2023-03-03T22:37:06.390Z,62.27
2023-03-03T22:39:34.590Z,62.33
2023-03-03T22:42:03.082Z,62.18
2023-03-03T22:44:31.615Z,62.82
2023-03-03T22:47:00.630Z,62.31
2023-03-03T22:49:29.538Z,62.06
2023-03-03T22:51:59.129Z,62.13
2023-03-03T22:54:27.529Z,61.89
2023-03-03T22:56:56.201Z,62.12
2023-03-03T22:59:24.858Z,62.27
2023-03-03T23:01:53.199Z,61.99
2023-03-03T23:04:21.809Z,61.77
2023-03-03T23:06:50.374Z,62.10
2023-03-03T23:09:18.955Z,62.03
2023-03-03T23:11:47.921Z,61.73
2023-03-03T23:14:16.282Z,61.85
2023-03-03T23:16:46.145Z,62.25
2023-03-03T23:19:15.067Z,61.99
2023-03-03T23:21:43.932Z,61.80
2023-03-03T23:24:12.742Z,62.01
2023-03-03T23:26:41.070Z,61.78
2023-03-03T23:29:09.428Z,61.32
2023-03-03T23:31:38.261Z,61.90
2023-03-03T23:34:06.869Z,61.63
2023-03-03T23:36:35.168Z,61.62
2023-03-03T23:39:04.175Z,61.42
2023-03-03T23:41:33.166Z,61.90
2023-03-03T23:44:01.959Z,62.06
2023-03-03T23:46:30.336Z,61.51
2023-03-03T23:49:00.125Z,61.55
2023-03-03T23:51:28.641Z,61.56
2023-03-03T23:53:57.510Z,61.28
2023-03-03T23:56:26.396Z,61.00
2023-03-03T23:58:54.886Z,61.12
